Time;durP1;ratioP1;P1;durP2;ratioP2;P2;SDS_P1;SDS_P2;PMS_P1;PMS_P2;Temp;Humidity;BMP_temperature;BMP_pressure;BME280_temperature;BME280_humidity;BME280_pressure;Samples;Min_cycle;Max_cycle;Signal;HPM_P1;HPM_P2
2023/10/10 00:01:02;;;;;;;14.93;10.35;;;;;;;;;;4956226;28;20557;-76
2023/10/10 00:03:31;;;;;;;15.27;10.77;;;;;;;;;;4955386;28;20034;-76
2023/10/10 00:06:00;;;;;;;14.88;10.57;;;;;;;;;;4955396;28;20035;-76
2023/10/10 00:08:33;;;;;;;18.73;10.90;;;;;;;;;;4940198;28;20035;-77
2023/10/10 00:10:59;;;;;;;17.75;11.63;;;;;;;;;;4937909;28;20047;-76
2023/10/10 00:13:25;;;;;;;17.75;11.10;;;;;;;;;;4939091;28;20051;-77
2023/10/10 00:15:51;;;;;;;14.90;10.27;;;;;;;;;;4973182;28;20039;-76
2023/10/10 00:18:18;;;;;;;18.23;11.43;;;;;;;;;;4954552;28;20066;-76
2023/10/10 00:20:47;;;;;;;16.58;10.50;;;;;;;;;;4955531;28;20118;-76
2023/10/10 00:23:16;;;;;;;16.42;10.95;;;;;;;;;;4947235;28;20075;-75
2023/10/10 00:25:45;;;;;;;17.17;10.50;;;;;;;;;;4945916;28;20031;-76
2023/10/10 00:28:18;;;;;;;16.85;11.15;;;;;;;;;;4956502;28;20059;-75
2023/10/10 00:30:47;;;;;;;21.10;11.25;;;;;;;;;;4946699;28;20125;-76
2023/10/10 00:33:16;;;;;;;18.98;11.02;;;;;;;;;;4970889;28;20039;-75
2023/10/10 00:35:42;;;;;;;19.05;11.82;;;;;;;;;;4954891;28;20308;-75
2023/10/10 00:38:11;;;;;;;18.60;11.30;;;;;;;;;;4940505;28;20056;-76
2023/10/10 00:40:39;;;;;;;20.52;11.63;;;;;;;;;;4956759;28;20101;-76
2023/10/10 00:43:16;;;;;;;18.90;11.80;;;;;;;;;;4939777;28;20490;-76
2023/10/10 00:45:44;;;;;;;19.40;12.60;;;;;;;;;;4955814;28;20183;-76
2023/10/10 00:48:09;;;;;;;19.50;12.00;;;;;;;;;;4957091;28;20035;-76
2023/10/10 00:50:37;;;;;;;18.73;11.75;;;;;;;;;;4955909;28;20092;-77
2023/10/10 00:53:08;;;;;;;;;;;;;;;;;;4974186;28;20042;-77
2023/10/10 00:55:34;;;;;;;21.23;12.25;;;;;;;;;;4979278;28;20013;-77
2023/10/10 00:58:01;;;;;;;22.10;12.55;;;;;;;;;;4943214;28;20039;-76
2023/10/10 01:00:29;;;;;;;22.13;13.00;;;;;;;;;;4959354;28;20507;-77
2023/10/10 01:03:20;;;;;;;22.95;12.75;;;;;;;;;;4943335;28;20402;-77
2023/10/10 01:05:52;;;;;;;22.80;12.57;;;;;;;;;;4958587;28;20042;-77
2023/10/10 01:08:19;;;;;;;20.52;12.07;;;;;;;;;;4960372;28;20030;-77
2023/10/10 01:10:47;;;;;;;20.95;12.30;;;;;;;;;;4976790;28;20070;-77
2023/10/10 01:13:13;;;;;;;21.77;12.25;;;;;;;;;;4958065;28;20525;-76
2023/10/10 01:15:43;;;;;;;23.50;12.90;;;;;;;;;;4964530;28;20034;-77
2023/10/10 01:18:13;;;;;;;22.88;12.05;;;;;;;;;;4958952;28;20127;-77
2023/10/10 01:20:45;;;;;;;21.13;12.13;;;;;;;;;;4973282;28;20053;-76
2023/10/10 01:23:12;;;;;;;24.73;12.48;;;;;;;;;;4978109;28;20038;-77
2023/10/10 01:28:13;;;;;;;22.13;12.45;;;;;;;;;;4960009;28;20034;-77
2023/10/10 01:33:35;;;;;;;24.60;12.32;;;;;;;;;;4971829;28;20037;-77
2023/10/10 01:36:19;;;;;;;26.88;13.57;;;;;;;;;;4949532;28;20110;-76
2023/10/10 01:39:08;;;;;;;26.33;13.23;;;;;;;;;;4960268;28;20985;-76
2023/10/10 01:41:39;;;;;;;24.35;13.27;;;;;;;;;;4956361;28;20669;-75
2023/10/10 01:44:22;;;;;;;22.40;13.20;;;;;;;;;;4964362;28;20811;-77
2023/10/10 01:46:50;;;;;;;26.60;13.98;;;;;;;;;;4963807;28;20053;-76
2023/10/10 01:49:25;;;;;;;26.63;14.07;;;;;;;;;;4948111;28;20162;-75
2023/10/10 01:51:55;;;;;;;25.08;12.60;;;;;;;;;;4957394;28;20038;-76
2023/10/10 01:54:22;;;;;;;25.20;13.15;;;;;;;;;;4942823;28;20118;-77
2023/10/10 01:56:48;;;;;;;25.70;13.13;;;;;;;;;;4955571;28;20031;-77
2023/10/10 01:59:18;;;;;;;28.75;14.00;;;;;;;;;;4958548;28;20399;-77
2023/10/10 02:01:43;;;;;;;26.23;13.18;;;;;;;;;;4956897;28;20050;-77
2023/10/10 02:04:10;;;;;;;31.05;13.65;;;;;;;;;;4959747;28;20035;-77
2023/10/10 02:06:39;;;;;;;29.52;14.43;;;;;;;;;;4949245;28;20509;-76
2023/10/10 02:09:11;;;;;;;28.65;14.70;;;;;;;;;;4961810;28;20382;-77
2023/10/10 02:11:38;;;;;;;28.98;14.52;;;;;;;;;;4935913;28;20502;-76
2023/10/10 02:14:11;;;;;;;29.53;14.70;;;;;;;;;;4965082;28;20427;-76
2023/10/10 02:16:40;;;;;;;25.65;13.45;;;;;;;;;;4956206;28;20333;-76
2023/10/10 02:19:16;;;;;;;28.65;13.90;;;;;;;;;;4958888;28;20041;-76
2023/10/10 02:22:12;;;;;;;29.90;13.70;;;;;;;;;;4955916;28;20593;-76
2023/10/10 02:26:56;;;;;;;28.08;14.30;;;;;;;;;;4954715;28;20042;-76
2023/10/10 02:32:18;;;;;;;31.67;13.88;;;;;;;;;;4946464;28;20590;-76
2023/10/10 02:35:26;;;;;;;26.48;13.43;;;;;;;;;;4956964;28;20035;-76
2023/10/10 02:37:44;;;;;;;25.75;13.73;;;;;;;;;;4956904;28;20038;-76
2023/10/10 02:40:16;;;;;;;25.50;13.75;;;;;;;;;;4971508;28;20787;-76
2023/10/10 02:45:35;;;;;;;30.05;14.95;;;;;;;;;;4921331;28;20398;-76
2023/10/10 02:48:06;;;;;;;31.40;14.70;;;;;;;;;;4940893;28;21073;-77
2023/10/10 02:50:41;;;;;;;29.65;13.55;;;;;;;;;;4941570;28;20038;-76
2023/10/10 02:53:08;;;;;;;31.83;15.07;;;;;;;;;;4956210;28;20026;-76
2023/10/10 02:55:50;;;;;;;29.40;14.55;;;;;;;;;;4955357;28;20038;-76
2023/10/10 02:58:22;;;;;;;33.55;14.50;;;;;;;;;;4942041;28;20536;-76
2023/10/10 03:00:52;;;;;;;32.30;14.05;;;;;;;;;;4970967;28;20039;-76
2023/10/10 03:03:20;;;;;;;30.08;14.80;;;;;;;;;;4941821;28;20363;-76
2023/10/10 03:05:54;;;;;;;31.17;14.60;;;;;;;;;;4955762;28;20515;-76
2023/10/10 03:08:34;;;;;;;33.30;15.25;;;;;;;;;;4956010;28;20035;-76
2023/10/10 03:11:01;;;;;;;35.92;14.43;;;;;;;;;;4955702;28;20586;-76
2023/10/10 03:13:30;;;;;;;34.80;15.17;;;;;;;;;;4977423;28;20113;-76
2023/10/10 03:16:31;;;;;;;31.92;15.05;;;;;;;;;;4955641;28;20038;-76
2023/10/10 03:29:21;;;;;;;31.77;14.50;;;;;;;;;;4956712;28;20085;-76
2023/10/10 03:32:18;;;;;;;32.47;14.77;;;;;;;;;;4941928;28;20035;-76
2023/10/10 03:34:44;;;;;;;33.47;14.80;;;;;;;;;;4957148;28;20035;-75
2023/10/10 03:39:55;;;;;;;28.60;14.77;;;;;;;;;;4956240;28;20562;-76
2023/10/10 05:23:48;;;;;;;25.67;12.30;;;;;;;;;;4958100;28;20481;-76
2023/10/10 05:26:15;;;;;;;25.35;11.88;;;;;;;;;;4957561;28;20483;-76
2023/10/10 05:28:45;;;;;;;25.80;12.60;;;;;;;;;;4974654;28;20093;-76
2023/10/10 05:31:12;;;;;;;20.38;11.73;;;;;;;;;;4972729;28;20326;-76
2023/10/10 05:33:37;;;;;;;27.40;12.13;;;;;;;;;;4943114;28;20035;-76
2023/10/10 05:36:06;;;;;;;24.38;12.48;;;;;;;;;;4955359;28;20062;-76
2023/10/10 05:38:36;;;;;;;20.80;10.80;;;;;;;;;;4961802;28;20460;-77
2023/10/10 05:41:03;;;;;;;26.30;11.82;;;;;;;;;;4937614;28;20054;-76
2023/10/10 05:43:36;;;;;;;21.30;10.45;;;;;;;;;;4942509;28;20044;-76
2023/10/10 05:46:03;;;;;;;21.77;10.82;;;;;;;;;;4973681;28;20038;-76
2023/10/10 05:48:32;;;;;;;19.13;10.03;;;;;;;;;;4959462;28;20089;-76
2023/10/10 05:50:58;;;;;;;20.60;9.27;;;;;;;;;;4963044;28;20118;-76
2023/10/10 05:53:24;;;;;;;22.00;9.55;;;;;;;;;;4940389;28;20054;-76
2023/10/10 05:55:53;;;;;;;20.42;9.35;;;;;;;;;;4973329;28;20131;-76
2023/10/10 05:58:20;;;;;;;20.52;8.90;;;;;;;;;;4973016;28;20122;-76
2023/10/10 06:00:48;;;;;;;18.87;9.20;;;;;;;;;;4957386;28;20047;-76
2023/10/10 06:03:16;;;;;;;18.63;9.40;;;;;;;;;;4953794;28;20361;-75
2023/10/10 06:05:45;;;;;;;14.68;8.40;;;;;;;;;;4946994;28;20055;-76
2023/10/10 06:08:11;;;;;;;19.83;8.77;;;;;;;;;;4956577;28;20046;-77
2023/10/10 06:10:36;;;;;;;16.75;8.88;;;;;;;;;;4939814;28;20403;-77
2023/10/10 06:13:06;;;;;;;19.73;8.48;;;;;;;;;;4939101;28;20331;-77
2023/10/10 06:15:35;;;;;;;18.92;8.73;;;;;;;;;;4955635;28;20034;-78
2023/10/10 06:18:11;;;;;;;19.15;8.30;;;;;;;;;;4955884;28;20047;-77
2023/10/10 06:20:41;;;;;;;18.48;8.45;;;;;;;;;;4976172;28;20063;-77
2023/10/10 06:23:11;;;;;;;16.55;8.75;;;;;;;;;;4958913;28;20105;-77
2023/10/10 06:25:37;;;;;;;17.15;8.40;;;;;;;;;;4947118;28;20038;-77
2023/10/10 06:28:05;;;;;;;15.48;8.32;;;;;;;;;;4937714;28;20043;-77
2023/10/10 06:30:36;;;;;;;15.57;7.90;;;;;;;;;;4958250;28;20578;-77
2023/10/10 06:33:09;;;;;;;16.83;7.97;;;;;;;;;;4955902;28;20122;-75
2023/10/10 06:35:38;;;;;;;16.75;7.60;;;;;;;;;;4942010;28;20757;-76
2023/10/10 06:38:10;;;;;;;17.27;7.60;;;;;;;;;;4963369;28;20035;-76
2023/10/10 06:40:42;;;;;;;14.30;7.10;;;;;;;;;;4956345;28;20142;-76
2023/10/10 06:43:08;;;;;;;14.50;7.35;;;;;;;;;;4955258;28;20098;-77
2023/10/10 06:45:40;;;;;;;16.05;7.40;;;;;;;;;;4955221;28;20042;-78
2023/10/10 06:48:08;;;;;;;14.93;7.65;;;;;;;;;;4941020;28;20045;-77
2023/10/10 06:50:38;;;;;;;16.00;7.35;;;;;;;;;;4956455;28;20495;-76
2023/10/10 06:53:04;;;;;;;15.45;6.93;;;;;;;;;;4955077;28;20035;-77
2023/10/10 06:55:39;;;;;;;11.88;6.88;;;;;;;;;;4941177;28;20498;-76
2023/10/10 06:58:06;;;;;;;13.60;7.00;;;;;;;;;;4955506;28;20042;-77
2023/10/10 07:00:45;;;;;;;15.88;7.38;;;;;;;;;;4972376;28;20077;-78
2023/10/10 07:03:11;;;;;;;13.60;6.78;;;;;;;;;;4955245;28;20540;-77
2023/10/10 07:05:39;;;;;;;15.13;6.90;;;;;;;;;;4971876;28;20085;-78
2023/10/10 07:08:24;;;;;;;13.30;6.30;;;;;;;;;;4954910;28;20035;-78
2023/10/10 07:10:53;;;;;;;15.32;7.30;;;;;;;;;;4941904;28;20042;-78
2023/10/10 07:13:21;;;;;;;15.57;7.82;;;;;;;;;;4953120;28;20543;-77
2023/10/10 07:15:51;;;;;;;13.35;6.60;;;;;;;;;;4957497;28;20490;-77
2023/10/10 07:18:23;;;;;;;13.00;7.53;;;;;;;;;;4955747;28;20537;-78
2023/10/10 07:21:09;;;;;;;14.65;7.55;;;;;;;;;;4957857;28;20453;-78
2023/10/10 07:23:37;;;;;;;12.82;7.07;;;;;;;;;;4947416;28;20034;-78
2023/10/10 07:26:19;;;;;;;12.77;7.30;;;;;;;;;;4945727;28;20042;-77
2023/10/10 07:28:48;;;;;;;15.55;7.55;;;;;;;;;;4969771;28;20043;-77
2023/10/10 07:31:21;;;;;;;14.13;6.88;;;;;;;;;;4955195;28;20058;-78
2023/10/10 07:34:03;;;;;;;15.05;7.38;;;;;;;;;;4940642;28;20123;-76
2023/10/10 07:36:29;;;;;;;11.70;6.65;;;;;;;;;;4969002;28;20129;-76
2023/10/10 07:39:31;;;;;;;13.68;6.97;;;;;;;;;;4939561;28;20449;-77
2023/10/10 07:41:47;;;;;;;12.13;6.50;;;;;;;;;;4956190;28;20101;-77
2023/10/10 07:44:22;;;;;;;11.90;6.95;;;;;;;;;;4955335;28;20053;-78
2023/10/10 07:47:07;;;;;;;13.13;6.97;;;;;;;;;;4944071;28;20125;-77
2023/10/10 07:49:33;;;;;;;13.30;7.05;;;;;;;;;;4955609;28;20046;-77
2023/10/10 07:52:02;;;;;;;11.57;6.53;;;;;;;;;;4959836;28;20479;-77
2023/10/10 07:55:15;;;;;;;11.57;6.50;;;;;;;;;;4949464;28;20608;-76
2023/10/10 07:57:26;;;;;;;10.00;6.15;;;;;;;;;;4960667;28;20042;-77
2023/10/10 07:59:57;;;;;;;12.27;6.53;;;;;;;;;;4953899;28;20399;-76
2023/10/10 08:05:01;;;;;;;12.63;6.38;;;;;;;;;;4976066;28;20146;-77
2023/10/10 08:07:27;;;;;;;11.45;5.95;;;;;;;;;;4961350;28;20067;-77
2023/10/10 08:12:37;;;;;;;9.80;6.20;;;;;;;;;;4956200;28;20137;-77
2023/10/10 08:15:19;;;;;;;14.13;6.53;;;;;;;;;;4955601;28;20047;-77
2023/10/10 08:17:54;;;;;;;12.50;5.97;;;;;;;;;;4945870;28;20451;-76
2023/10/10 08:23:24;;;;;;;10.38;5.53;;;;;;;;;;4878383;29;20060;-76
2023/10/10 08:25:53;;;;;;;10.77;5.55;;;;;;;;;;4944499;28;20375;-77
2023/10/10 08:28:21;;;;;;;8.45;5.63;;;;;;;;;;4977519;28;20058;-77
2023/10/10 08:30:48;;;;;;;9.45;5.60;;;;;;;;;;4956252;28;20035;-77
2023/10/10 08:33:14;;;;;;;;;;;;;;;;;;4971744;28;20511;-77
2023/10/10 08:35:39;;;;;;;7.72;4.95;;;;;;;;;;4956627;28;19922;-77
2023/10/10 08:38:08;;;;;;;9.38;4.95;;;;;;;;;;4954378;28;20097;-77
2023/10/10 08:40:35;;;;;;;9.48;4.80;;;;;;;;;;4961239;28;20042;-76
2023/10/10 08:43:02;;;;;;;8.00;4.57;;;;;;;;;;4955894;28;20098;-77
2023/10/10 08:45:39;;;;;;;8.77;4.55;;;;;;;;;;4937914;28;20040;-77
2023/10/10 08:48:12;;;;;;;9.60;4.30;;;;;;;;;;4960968;28;20634;-77
2023/10/10 08:50:41;;;;;;;8.93;4.05;;;;;;;;;;4955295;28;20447;-75
2023/10/10 08:53:13;;;;;;;7.50;3.97;;;;;;;;;;4955664;28;20614;-77
2023/10/10 08:55:40;;;;;;;7.60;4.22;;;;;;;;;;4955196;28;20562;-77
2023/10/10 08:58:10;;;;;;;8.10;3.73;;;;;;;;;;4961986;28;20109;-76
2023/10/10 09:00:37;;;;;;;7.97;3.92;;;;;;;;;;4961441;28;20178;-76
2023/10/10 09:03:03;;;;;;;7.60;3.83;;;;;;;;;;4956449;28;20034;-77
2023/10/10 09:05:28;;;;;;;5.07;3.30;;;;;;;;;;4956222;28;20047;-77
2023/10/10 09:07:54;;;;;;;5.28;3.45;;;;;;;;;;4945054;28;20079;-77
2023/10/10 09:10:29;;;;;;;7.63;3.67;;;;;;;;;;4955644;28;20062;-77
2023/10/10 09:12:58;;;;;;;7.63;3.30;;;;;;;;;;4978729;28;20037;-77
2023/10/10 09:15:25;;;;;;;5.90;3.30;;;;;;;;;;4959767;28;20043;-77
2023/10/10 09:17:58;;;;;;;5.32;2.90;;;;;;;;;;4958699;28;20053;-77
2023/10/10 09:20:28;;;;;;;6.53;3.42;;;;;;;;;;4966266;28;20043;-77
2023/10/10 09:22:58;;;;;;;7.80;3.40;;;;;;;;;;4962512;28;20035;-77
2023/10/10 09:25:31;;;;;;;8.70;3.65;;;;;;;;;;4943204;28;20039;-78
2023/10/10 09:28:03;;;;;;;6.47;3.20;;;;;;;;;;4964873;28;20799;-78
2023/10/10 09:30:40;;;;;;;5.78;3.30;;;;;;;;;;4952803;28;20042;-76
2023/10/10 09:35:58;;;;;;;6.80;3.08;;;;;;;;;;4963954;28;20120;-76
2023/10/10 09:38:34;;;;;;;6.38;3.17;;;;;;;;;;4945120;28;20121;-78
2023/10/10 09:50:00;;;;;;;8.15;3.55;;;;;;;;;;4958872;28;20062;-78
2023/10/10 09:58:15;;;;;;;5.72;2.67;;;;;;;;;;4958082;28;20041;-76
2023/10/10 10:06:04;;;;;;;4.07;2.65;;;;;;;;;;4972071;28;20034;-76
2023/10/10 10:08:38;;;;;;;7.32;2.85;;;;;;;;;;4958029;28;20039;-76
2023/10/10 10:11:19;;;;;;;7.22;2.60;;;;;;;;;;4958274;28;20047;-76
2023/10/10 10:14:17;;;;;;;6.50;2.88;;;;;;;;;;4973409;28;20035;-77
2023/10/10 10:16:59;;;;;;;4.85;2.53;;;;;;;;;;4943554;28;20074;-78
2023/10/10 10:19:28;;;;;;;7.63;2.70;;;;;;;;;;4957462;28;20446;-78
2023/10/10 10:22:09;;;;;;;6.65;2.45;;;;;;;;;;4972797;28;20105;-77
2023/10/10 10:24:46;;;;;;;7.75;2.58;;;;;;;;;;4944808;28;20788;-78
2023/10/10 10:27:42;;;;;;;5.72;2.50;;;;;;;;;;4957013;28;20035;-77
2023/10/10 10:32:41;;;;;;;5.60;2.40;;;;;;;;;;4972076;28;20054;-76
2023/10/10 10:35:12;;;;;;;5.40;2.10;;;;;;;;;;4947545;28;20035;-78
2023/10/10 10:37:39;;;;;;;5.72;2.40;;;;;;;;;;4949960;28;20682;-77
2023/10/10 10:42:46;;;;;;;3.72;2.22;;;;;;;;;;4957116;28;20058;-76
2023/10/10 10:45:34;;;;;;;4.15;2.20;;;;;;;;;;4957179;28;20042;-77
2023/10/10 10:48:06;;;;;;;7.03;2.40;;;;;;;;;;4960057;28;20035;-78
2023/10/10 10:50:45;;;;;;;7.40;2.85;;;;;;;;;;4953545;28;20039;-78
2023/10/10 10:53:30;;;;;;;4.70;2.55;;;;;;;;;;4941466;28;20046;-77
2023/10/10 10:56:44;;;;;;;6.43;2.60;;;;;;;;;;4946537;28;20027;-77
2023/10/10 11:01:27;;;;;;;6.47;3.15;;;;;;;;;;4955616;28;20046;-78
2023/10/10 11:03:57;;;;;;;7.60;3.60;;;;;;;;;;4956917;28;20039;-77
2023/10/10 11:06:28;;;;;;;6.03;2.92;;;;;;;;;;4945592;28;20027;-77
2023/10/10 11:09:08;;;;;;;6.45;2.67;;;;;;;;;;4962688;28;20058;-76
2023/10/10 11:14:04;;;;;;;6.22;2.45;;;;;;;;;;4958219;28;20086;-77
2023/10/10 11:16:45;;;;;;;6.60;2.45;;;;;;;;;;4954281;28;20496;-77
2023/10/10 11:21:55;;;;;;;4.70;2.55;;;;;;;;;;4954177;28;20031;-78
2023/10/10 11:24:26;;;;;;;5.60;2.40;;;;;;;;;;4962452;28;20046;-79
2023/10/10 11:29:47;;;;;;;5.85;2.28;;;;;;;;;;4956672;28;20039;-77
2023/10/10 11:32:25;;;;;;;4.15;2.47;;;;;;;;;;4939102;28;20038;-77
2023/10/10 11:34:57;;;;;;;6.95;2.50;;;;;;;;;;4938846;28;20030;-77
2023/10/10 11:37:32;;;;;;;4.28;2.20;;;;;;;;;;4939115;28;20082;-78
2023/10/10 11:43:05;;;;;;;4.18;2.00;;;;;;;;;;4955092;28;20093;-78
2023/10/10 11:45:39;;;;;;;5.10;2.00;;;;;;;;;;4945575;28;20130;-78
2023/10/10 11:48:10;;;;;;;4.75;1.75;;;;;;;;;;4974551;28;20726;-77
2023/10/10 11:50:45;;;;;;;3.85;1.98;;;;;;;;;;4971212;28;20667;-77
2023/10/10 11:53:27;;;;;;;4.10;1.67;;;;;;;;;;4956020;28;20064;-77
2023/10/10 11:56:01;;;;;;;3.90;1.55;;;;;;;;;;4961123;28;20027;-78
2023/10/10 11:58:37;;;;;;;4.72;1.75;;;;;;;;;;4955837;28;20058;-78
2023/10/10 12:01:06;;;;;;;4.60;1.80;;;;;;;;;;4954430;28;20062;-78
2023/10/10 12:06:26;;;;;;;4.20;1.70;;;;;;;;;;4976800;28;20151;-78
2023/10/10 12:08:53;;;;;;;4.25;1.67;;;;;;;;;;4955513;28;20055;-78
2023/10/10 12:11:20;;;;;;;3.90;1.77;;;;;;;;;;4955315;28;20043;-78
2023/10/10 12:13:50;;;;;;;4.15;1.73;;;;;;;;;;4946130;28;20118;-78
2023/10/10 12:16:17;;;;;;;3.03;1.60;;;;;;;;;;4955624;28;20049;-77
2023/10/10 12:18:44;;;;;;;5.32;1.67;;;;;;;;;;4973805;28;20111;-77
2023/10/10 12:21:19;;;;;;;5.60;1.70;;;;;;;;;;4955453;28;20551;-76
2023/10/10 12:23:47;;;;;;;7.20;2.00;;;;;;;;;;4946175;28;20043;-77
2023/10/10 12:26:13;;;;;;;5.38;1.80;;;;;;;;;;4959829;28;20101;-77
2023/10/10 12:28:38;;;;;;;4.00;1.55;;;;;;;;;;4956727;28;20046;-76
2023/10/10 12:31:05;;;;;;;6.22;1.75;;;;;;;;;;4953317;28;20039;-77
2023/10/10 12:33:31;;;;;;;4.68;1.85;;;;;;;;;;4955608;28;20059;-77
2023/10/10 12:35:56;;;;;;;4.85;2.00;;;;;;;;;;4961215;28;20475;-76
2023/10/10 12:38:23;;;;;;;3.72;1.50;;;;;;;;;;4956757;28;20093;-77
2023/10/10 12:40:56;;;;;;;8.00;1.95;;;;;;;;;;4954380;28;20050;-77
2023/10/10 12:43:25;;;;;;;4.10;1.95;;;;;;;;;;4954751;28;20090;-77
2023/10/10 12:45:51;;;;;;;4.07;1.80;;;;;;;;;;4952626;28;20602;-77
2023/10/10 12:48:20;;;;;;;4.82;1.80;;;;;;;;;;4948995;28;20541;-76
2023/10/10 12:50:54;;;;;;;3.70;1.77;;;;;;;;;;4958464;28;20118;-77
2023/10/10 12:53:20;;;;;;;5.07;2.03;;;;;;;;;;4964401;28;20032;-77
2023/10/10 12:55:55;;;;;;;3.10;1.55;;;;;;;;;;4938431;28;20054;-76
2023/10/10 12:58:22;;;;;;;3.08;1.70;;;;;;;;;;4963694;28;20626;-76
2023/10/10 13:00:51;;;;;;;3.83;1.92;;;;;;;;;;4939652;28;20503;-76
2023/10/10 13:03:27;;;;;;;7.53;2.22;;;;;;;;;;4959083;28;20500;-77
2023/10/10 13:05:58;;;;;;;4.25;1.80;;;;;;;;;;4949960;28;20499;-76
2023/10/10 13:08:47;;;;;;;4.05;1.73;;;;;;;;;;4959684;28;20524;-76
2023/10/10 13:11:14;;;;;;;3.78;1.83;;;;;;;;;;4956622;28;20511;-77
2023/10/10 13:13:46;;;;;;;;;;;;;;;;;;4957529;28;20062;-77
2023/10/10 13:19:06;;;;;;;5.20;1.80;;;;;;;;;;4957807;28;20033;-76
2023/10/10 13:21:41;;;;;;;4.70;2.25;;;;;;;;;;4958267;28;24686;-76
2023/10/10 13:24:11;;;;;;;3.80;2.03;;;;;;;;;;4939951;28;20121;-77
2023/10/10 13:26:41;;;;;;;3.67;1.70;;;;;;;;;;4957840;28;20035;-77
2023/10/10 13:29:07;;;;;;;5.50;1.70;;;;;;;;;;4939987;28;20042;-77
2023/10/10 13:31:53;;;;;;;4.00;1.63;;;;;;;;;;4941691;28;20039;-77
2023/10/10 13:34:22;;;;;;;3.88;1.70;;;;;;;;;;4925824;29;20039;-77
2023/10/10 13:36:49;;;;;;;3.88;1.60;;;;;;;;;;4907673;29;20032;-77
2023/10/10 13:39:17;;;;;;;6.03;2.10;;;;;;;;;;4925891;29;20437;-76
2023/10/10 13:41:43;;;;;;;3.90;1.60;;;;;;;;;;4923693;29;20051;-76
2023/10/10 13:44:10;;;;;;;4.10;1.60;;;;;;;;;;4895080;29;20040;-77
2023/10/10 13:46:35;;;;;;;;;;;;;;;;;;4893598;29;20111;-77
2023/10/10 13:49:04;;;;;;;4.07;1.70;;;;;;;;;;4924370;29;21442;-76
2023/10/10 13:51:39;;;;;;;4.38;1.70;;;;;;;;;;4906082;29;20044;-77
2023/10/10 13:54:05;;;;;;;3.08;1.50;;;;;;;;;;4924161;29;20572;-75
2023/10/10 13:56:31;;;;;;;5.25;1.88;;;;;;;;;;4907841;29;20040;-77
2023/10/10 13:58:57;;;;;;;3.38;1.80;;;;;;;;;;4906826;29;20048;-77
2023/10/10 14:04:01;;;;;;;5.20;1.65;;;;;;;;;;4908720;29;20047;-77
2023/10/10 14:06:28;;;;;;;4.60;1.83;;;;;;;;;;4908424;29;20048;-77
2023/10/10 14:08:54;;;;;;;5.95;1.70;;;;;;;;;;4908850;29;20035;-77
2023/10/10 14:11:22;;;;;;;4.50;1.80;;;;;;;;;;4939619;28;20524;-77
2023/10/10 14:13:50;;;;;;;3.33;1.48;;;;;;;;;;4954671;28;20031;-77
2023/10/10 14:16:17;;;;;;;5.35;1.70;;;;;;;;;;4972839;28;20049;-77
2023/10/10 14:18:43;;;;;;;4.45;1.60;;;;;;;;;;4957400;28;20043;-77
2023/10/10 14:21:10;;;;;;;3.92;1.58;;;;;;;;;;4956245;28;20451;-76
2023/10/10 14:23:37;;;;;;;3.33;1.40;;;;;;;;;;4956269;28;20042;-77
2023/10/10 14:26:12;;;;;;;3.80;1.50;;;;;;;;;;4955460;28;20042;-77
2023/10/10 14:28:42;;;;;;;4.10;1.90;;;;;;;;;;4963524;28;20794;-77
2023/10/10 14:31:13;;;;;;;5.03;1.50;;;;;;;;;;4949027;28;20470;-76
2023/10/10 14:33:40;;;;;;;3.33;1.67;;;;;;;;;;4957444;28;20055;-75
2023/10/10 14:36:11;;;;;;;3.25;1.55;;;;;;;;;;4946988;28;20050;-76
2023/10/10 14:38:37;;;;;;;3.92;1.55;;;;;;;;;;4955125;28;20035;-77
2023/10/10 14:41:02;;;;;;;3.10;1.40;;;;;;;;;;4954907;28;20512;-79
2023/10/10 14:43:28;;;;;;;3.03;1.58;;;;;;;;;;4971273;28;20054;-79
2023/10/10 14:45:54;;;;;;;3.20;1.48;;;;;;;;;;4962548;28;20549;-78
2023/10/10 14:48:19;;;;;;;5.72;1.63;;;;;;;;;;4940282;28;20054;-79
2023/10/10 14:50:52;;;;;;;4.15;1.63;;;;;;;;;;4963296;28;20038;-79
2023/10/10 14:53:22;;;;;;;3.33;1.52;;;;;;;;;;4954165;28;20045;-79
2023/10/10 14:55:50;;;;;;;4.05;1.33;;;;;;;;;;4948627;28;20065;-79
2023/10/10 14:58:16;;;;;;;4.78;1.90;;;;;;;;;;4932712;28;20043;-80
2023/10/10 15:00:41;;;;;;;3.72;1.85;;;;;;;;;;4957320;28;20109;-78
2023/10/10 15:03:15;;;;;;;4.05;1.42;;;;;;;;;;4955283;28;20057;-79
2023/10/10 15:05:49;;;;;;;5.00;1.55;;;;;;;;;;4945175;28;20038;-78
2023/10/10 15:08:19;;;;;;;3.58;1.40;;;;;;;;;;4962238;28;20427;-80
2023/10/10 15:10:45;;;;;;;3.80;1.50;;;;;;;;;;4938498;28;20085;-79
2023/10/10 15:13:14;;;;;;;5.23;1.80;;;;;;;;;;4961797;28;20063;-80
2023/10/10 15:15:45;;;;;;;3.20;1.60;;;;;;;;;;4939256;28;20034;-80
2023/10/10 15:18:15;;;;;;;3.15;1.70;;;;;;;;;;4939447;28;21066;-79
2023/10/10 15:20:45;;;;;;;4.43;1.90;;;;;;;;;;4939875;28;20039;-79
2023/10/10 15:23:11;;;;;;;3.38;1.77;;;;;;;;;;4946632;28;20094;-78
2023/10/10 15:25:36;;;;;;;3.92;1.50;;;;;;;;;;4955313;28;20530;-79
2023/10/10 15:28:03;;;;;;;4.75;1.88;;;;;;;;;;4955790;28;20093;-79
2023/10/10 15:30:28;;;;;;;3.03;1.40;;;;;;;;;;4958222;28;20810;-79
2023/10/10 15:32:57;;;;;;;4.03;1.75;;;;;;;;;;4956922;28;20041;-77
2023/10/10 15:35:23;;;;;;;4.22;1.55;;;;;;;;;;4947170;28;20046;-78
2023/10/10 15:37:49;;;;;;;5.10;2.00;;;;;;;;;;4929861;28;20468;-78
2023/10/10 15:40:21;;;;;;;4.03;2.00;;;;;;;;;;4937590;28;20129;-79
2023/10/10 15:42:49;;;;;;;5.05;2.03;;;;;;;;;;4958286;28;20118;-78
2023/10/10 15:45:20;;;;;;;5.32;2.03;;;;;;;;;;4956580;28;20511;-79
2023/10/10 15:47:49;;;;;;;4.13;2.00;;;;;;;;;;4955866;28;20042;-78
2023/10/10 15:50:17;;;;;;;3.50;1.75;;;;;;;;;;4945892;28;20032;-79
2023/10/10 15:52:48;;;;;;;6.05;1.95;;;;;;;;;;4954410;28;20031;-79
2023/10/10 15:55:23;;;;;;;4.35;2.00;;;;;;;;;;4941119;28;20442;-79
2023/10/10 15:57:52;;;;;;;5.95;1.88;;;;;;;;;;4940656;28;20039;-78
2023/10/10 16:00:21;;;;;;;4.47;2.33;;;;;;;;;;4957046;28;20144;-78
2023/10/10 16:02:53;;;;;;;7.38;3.15;;;;;;;;;;4954617;28;20031;-78
2023/10/10 16:05:19;;;;;;;5.22;2.17;;;;;;;;;;4943373;28;20066;-78
2023/10/10 16:07:46;;;;;;;7.43;2.97;;;;;;;;;;4945491;28;20613;-79
2023/10/10 16:10:14;;;;;;;3.88;2.20;;;;;;;;;;4978563;28;20046;-79
2023/10/10 16:12:42;;;;;;;6.15;2.63;;;;;;;;;;4950273;28;20049;-79
2023/10/10 16:15:18;;;;;;;5.63;2.70;;;;;;;;;;4937224;28;20125;-79
2023/10/10 16:17:51;;;;;;;7.25;2.47;;;;;;;;;;4961135;28;20499;-79
2023/10/10 16:20:22;;;;;;;6.57;2.50;;;;;;;;;;4954909;28;20039;-79
2023/10/10 16:22:52;;;;;;;6.18;2.78;;;;;;;;;;4958743;28;20035;-77
2023/10/10 16:25:22;;;;;;;5.18;2.80;;;;;;;;;;4964961;28;20040;-78
2023/10/10 16:27:51;;;;;;;4.97;2.60;;;;;;;;;;4959261;28;20065;-77
2023/10/10 16:30:17;;;;;;;6.22;3.10;;;;;;;;;;4943671;28;20062;-78
2023/10/10 16:32:43;;;;;;;4.85;2.65;;;;;;;;;;4965036;28;20598;-78
2023/10/10 16:35:11;;;;;;;4.65;2.50;;;;;;;;;;4958682;28;20042;-76
2023/10/10 16:37:37;;;;;;;6.97;3.10;;;;;;;;;;4958239;28;20035;-76
2023/10/10 16:40:05;;;;;;;4.45;3.05;;;;;;;;;;4958170;28;20454;-76
2023/10/10 16:42:32;;;;;;;;;;;;;;;;;;4959553;28;20039;-76
2023/10/10 16:44:58;;;;;;;7.10;3.17;;;;;;;;;;4976220;28;19918;-76
2023/10/10 16:47:24;;;;;;;5.85;3.20;;;;;;;;;;4956279;28;20027;-76
2023/10/10 16:49:50;;;;;;;6.13;3.35;;;;;;;;;;4960991;28;20035;-77
2023/10/10 16:52:16;;;;;;;7.70;3.55;;;;;;;;;;4959526;28;20113;-77
2023/10/10 16:54:50;;;;;;;5.47;3.38;;;;;;;;;;4944446;28;20041;-76
2023/10/10 16:57:16;;;;;;;6.28;3.30;;;;;;;;;;4957623;28;20440;-76
2023/10/10 16:59:42;;;;;;;5.65;3.50;;;;;;;;;;4959419;28;20495;-76
2023/10/10 17:02:09;;;;;;;6.00;3.63;;;;;;;;;;4972684;28;20039;-76
2023/10/10 17:04:35;;;;;;;7.03;3.63;;;;;;;;;;4959402;28;20037;-76
2023/10/10 17:07:00;;;;;;;7.82;3.90;;;;;;;;;;4976453;28;20027;-76
2023/10/10 17:09:26;;;;;;;8.05;4.68;;;;;;;;;;4965762;28;20059;-76
2023/10/10 17:11:52;;;;;;;7.72;4.75;;;;;;;;;;4958568;28;20109;-78
2023/10/10 17:14:18;;;;;;;8.45;5.15;;;;;;;;;;4953152;28;20737;-78
2023/10/10 17:16:44;;;;;;;7.35;5.22;;;;;;;;;;4939253;28;20061;-78
2023/10/10 17:19:10;;;;;;;9.20;4.82;;;;;;;;;;4957886;28;20490;-77
2023/10/10 17:21:35;;;;;;;7.25;4.68;;;;;;;;;;4972177;28;20487;-78
2023/10/10 17:24:03;;;;;;;10.00;5.35;;;;;;;;;;4942919;28;20076;-78
2023/10/10 17:26:30;;;;;;;9.70;5.18;;;;;;;;;;4959103;28;20050;-77
2023/10/10 17:28:59;;;;;;;7.60;4.88;;;;;;;;;;4958135;28;20146;-78
2023/10/10 17:31:26;;;;;;;9.68;5.65;;;;;;;;;;4956347;28;20050;-77
2023/10/10 17:33:56;;;;;;;7.90;5.47;;;;;;;;;;4956824;28;20030;-77
2023/10/10 17:36:26;;;;;;;7.00;5.13;;;;;;;;;;4963737;28;20590;-77
2023/10/10 17:38:52;;;;;;;8.15;5.43;;;;;;;;;;4943537;28;20036;-77
2023/10/10 17:41:17;;;;;;;7.80;5.55;;;;;;;;;;4956719;28;20039;-78
2023/10/10 17:43:43;;;;;;;9.05;5.97;;;;;;;;;;4949005;28;20050;-77
2023/10/10 17:46:15;;;;;;;8.95;5.53;;;;;;;;;;4975748;28;20376;-77
2023/10/10 17:48:42;;;;;;;7.80;5.95;;;;;;;;;;4976192;28;20057;-77
2023/10/10 17:51:14;;;;;;;9.75;6.50;;;;;;;;;;4962342;28;20043;-78
2023/10/10 17:53:42;;;;;;;9.43;6.28;;;;;;;;;;4942511;28;20062;-78
2023/10/10 17:56:14;;;;;;;9.23;6.22;;;;;;;;;;4939283;28;20090;-77
2023/10/10 17:58:40;;;;;;;12.00;7.43;;;;;;;;;;4958741;28;20039;-77
2023/10/10 18:01:09;;;;;;;11.05;6.68;;;;;;;;;;4958495;28;20043;-77